Time;durP1;ratioP1;P1;durP2;ratioP2;P2;SDS_P1;SDS_P2;PMS_P1;PMS_P2;Temp;Humidity;BMP_temperature;BMP_pressure;BME280_temperature;BME280_humidity;BME280_pressure;Samples;Min_cycle;Max_cycle;Signal;HPM_P1;HPM_P2
2022/05/26 00:01:04;;;;;;;4.15;1.27;;;;;;;9.33;91.36;96713.88;1743019;81;21126;-86
2022/05/26 00:03:29;;;;;;;3.72;0.90;;;;;;;9.35;91.49;96709.81;1743759;82;21055;-86
2022/05/26 00:05:54;;;;;;;5.65;1.25;;;;;;;9.34;91.44;96712.09;1743867;82;21068;-86
2022/05/26 00:08:20;;;;;;;5.60;1.22;;;;;;;9.37;91.76;96712.24;1744202;81;21071;-87
2022/05/26 00:10:46;;;;;;;14.25;1.57;;;;;;;9.36;91.84;96703.66;1744200;82;21071;-86
2022/05/26 00:13:11;;;;;;;13.25;1.55;;;;;;;9.35;91.80;96709.81;1742925;82;20994;-86
2022/05/26 00:15:37;;;;;;;1.47;0.75;;;;;;;9.39;91.94;96710.28;1744046;82;20976;-86
2022/05/26 00:18:03;;;;;;;3.42;1.00;;;;;;;9.45;92.04;96711.75;1744091;82;21071;-87
2022/05/26 00:20:30;;;;;;;3.77;1.00;;;;;;;9.51;92.20;96712.37;1743735;82;21106;-86
2022/05/26 00:22:56;;;;;;;5.60;1.45;;;;;;;9.57;92.38;96714.77;1744233;82;21409;-86
2022/05/26 00:25:22;;;;;;;9.10;1.30;;;;;;;9.67;92.24;96711.51;1744074;81;21374;-87
2022/05/26 00:27:48;;;;;;;2.85;1.02;;;;;;;9.74;92.22;96713.73;1743535;82;20995;-85
2022/05/26 00:30:13;;;;;;;3.55;1.02;;;;;;;9.80;92.05;96721.36;1743497;82;21022;-86
2022/05/26 00:32:39;;;;;;;4.37;1.40;;;;;;;9.79;92.13;96714.55;1743824;82;21398;-86
2022/05/26 00:35:07;;;;;;;3.42;1.32;;;;;;;9.81;92.44;96714.70;1784522;80;21054;-86
2022/05/26 00:37:33;;;;;;;4.25;1.42;;;;;;;9.84;92.58;96716.14;1787323;80;21316;-86
2022/05/26 00:40:00;;;;;;;5.10;1.22;;;;;;;9.87;92.55;96722.30;1787625;80;21017;-86
2022/05/26 00:42:26;;;;;;;4.33;1.45;;;;;;;9.95;92.80;96723.57;1787513;80;21352;-86
2022/05/26 00:44:52;;;;;;;5.97;1.65;;;;;;;10.02;92.79;96721.91;1787594;80;20974;-85
2022/05/26 00:47:24;;;;;;;4.67;1.62;;;;;;;10.10;92.67;96717.98;1787651;80;21041;-85
2022/05/26 00:50:22;;;;;;;5.25;1.60;;;;;;;10.18;92.69;96719.22;1787383;80;21383;-85
2022/05/26 00:53:02;;;;;;;4.60;1.50;;;;;;;10.21;92.66;96721.50;1787610;80;21065;-84
2022/05/26 00:55:32;;;;;;;4.33;1.27;;;;;;;10.29;92.93;96722.45;1786907;80;21466;-85
2022/05/26 00:58:11;;;;;;;4.78;1.47;;;;;;;10.30;92.94;96726.17;1785723;80;21029;-84
2022/05/26 01:00:38;;;;;;;4.60;1.40;;;;;;;10.32;92.63;96728.59;1786100;80;21332;-85
2022/05/26 01:03:15;;;;;;;6.25;1.60;;;;;;;10.33;92.67;96718.03;1785647;80;21076;-85
2022/05/26 01:05:58;;;;;;;3.20;1.10;;;;;;;10.37;92.39;96737.98;1786378;80;21136;-84
2022/05/26 01:08:45;;;;;;;2.92;1.72;;;;;;;10.43;92.33;96740.71;1787011;80;21021;-85
2022/05/26 01:11:11;;;;;;;2.52;1.40;;;;;;;10.48;92.09;96742.79;1787050;80;21033;-85
2022/05/26 01:13:46;;;;;;;1.98;1.47;;;;;;;10.50;92.54;96741.63;1787774;80;21308;-85
2022/05/26 01:16:26;;;;;;;2.60;1.70;;;;;;;10.48;91.62;96737.10;1787621;80;20962;-85
2022/05/26 01:19:22;;;;;;;9.10;2.50;;;;;;;10.54;92.15;96730.39;1787142;80;21060;-85
2022/05/26 01:21:55;;;;;;;3.55;1.70;;;;;;;10.60;91.38;96728.42;1787681;80;20993;-85
2022/05/26 01:25:00;;;;;;;2.30;1.57;;;;;;;10.63;91.56;96726.77;1752250;80;21033;-85
2022/05/26 01:27:38;;;;;;;1.98;1.30;;;;;;;10.67;91.61;96729.34;1787239;80;21411;-85
2022/05/26 01:30:15;;;;;;;1.75;1.50;;;;;;;10.76;91.74;96728.31;1787559;80;21085;-84
2022/05/26 01:33:09;;;;;;;3.17;1.82;;;;;;;10.82;91.13;96725.49;1756495;81;21008;-85
2022/05/26 01:35:58;;;;;;;3.17;1.12;;;;;;;10.84;91.44;96728.72;1757974;82;21755;-85
2022/05/26 01:39:05;;;;;;;3.08;1.32;;;;;;;10.83;91.81;96724.02;1757966;82;21003;-85
2022/05/26 01:41:40;;;;;;;4.70;1.40;;;;;;;10.89;91.44;96732.09;1757824;82;21429;-85
2022/05/26 01:44:29;;;;;;;2.47;1.30;;;;;;;10.95;91.67;96734.01;1757533;82;21000;-86
2022/05/26 01:47:03;;;;;;;3.60;1.50;;;;;;;10.97;91.77;96735.94;1785563;80;21093;-86
2022/05/26 01:49:44;;;;;;;3.10;1.40;;;;;;;11.02;91.56;96742.22;1789184;80;21001;-85
2022/05/26 01:52:17;;;;;;;2.05;1.50;;;;;;;11.05;91.35;96737.16;1789212;80;20984;-86
2022/05/26 01:54:56;;;;;;;3.50;1.85;;;;;;;11.09;91.21;96742.34;1791072;80;21028;-86
2022/05/26 01:57:32;;;;;;;2.37;1.42;;;;;;;11.13;90.15;96743.11;1791753;80;20940;-86
2022/05/26 02:00:07;;;;;;;2.65;1.35;;;;;;;11.14;90.18;96741.31;1792082;80;21067;-86
2022/05/26 02:02:37;;;;;;;4.70;1.30;;;;;;;11.20;89.79;96742.39;1791997;80;20968;-86
2022/05/26 02:05:20;;;;;;;2.35;1.10;;;;;;;11.23;90.03;96729.86;1773235;80;21078;-86
2022/05/26 02:07:54;;;;;;;3.25;1.67;;;;;;;11.29;89.18;96726.55;1767476;80;21366;-86
2022/05/26 02:10:36;;;;;;;3.45;1.32;;;;;;;11.39;89.00;96727.59;1772665;80;21377;-85
2022/05/26 02:13:05;;;;;;;4.95;1.32;;;;;;;11.41;89.68;96723.02;1773147;80;20953;-86
2022/05/26 02:15:39;;;;;;;4.60;1.50;;;;;;;11.40;89.52;96723.52;1778660;80;21039;-86
2022/05/26 02:18:20;;;;;;;4.28;1.20;;;;;;;11.43;88.47;96726.25;1784680;80;20992;-86
2022/05/26 02:21:03;;;;;;;3.55;1.52;;;;;;;11.47;88.57;96724.09;1782216;80;21057;-85
2022/05/26 02:23:57;;;;;;;2.98;1.40;;;;;;;11.51;88.14;96726.15;1770175;80;20974;-86
2022/05/26 02:26:23;;;;;;;3.45;1.40;;;;;;;11.59;87.56;96723.48;1769910;80;20983;-87
2022/05/26 02:31:33;;;;;;;4.22;1.40;;;;;;;11.60;89.02;96729.48;1772119;80;21075;-86
2022/05/26 02:34:00;;;;;;;5.47;1.55;;;;;;;11.57;88.83;96725.45;1774215;80;21067;-85
2022/05/26 02:36:29;;;;;;;1.57;1.00;;;;;;;11.57;88.80;96724.64;1776694;80;21110;-86
2022/05/26 02:38:55;;;;;;;5.65;1.35;;;;;;;11.57;89.08;96720.25;1776518;80;21310;-86
2022/05/26 02:41:23;;;;;;;5.20;1.40;;;;;;;11.61;88.23;96726.70;1780279;80;20976;-86
2022/05/26 02:43:48;;;;;;;3.27;1.35;;;;;;;11.64;88.63;96725.53;1776065;80;20963;-86
2022/05/26 02:46:52;;;;;;;2.92;1.47;;;;;;;11.65;88.42;96731.05;1774480;80;21007;-86
2022/05/26 02:50:01;;;;;;;4.15;1.22;;;;;;;11.60;88.92;96733.39;1741438;80;20975;-85
2022/05/26 02:52:47;;;;;;;5.35;1.70;;;;;;;11.55;88.49;96727.89;1779280;80;21501;-86
2022/05/26 02:55:18;;;;;;;9.18;1.60;;;;;;;11.56;87.93;96726.94;1775864;80;20998;-86
2022/05/26 02:58:01;;;;;;;4.78;1.30;;;;;;;11.59;88.42;96726.08;1774988;80;20962;-86
2022/05/26 03:00:58;;;;;;;4.15;1.50;;;;;;;11.62;87.39;96724.41;1779373;80;21365;-84
2022/05/26 03:03:43;;;;;;;3.87;1.20;;;;;;;11.70;86.12;96732.61;1778631;80;20959;-86
2022/05/26 03:06:15;;;;;;;4.22;1.50;;;;;;;11.80;87.59;96733.68;1772675;80;21005;-86
2022/05/26 03:08:41;;;;;;;6.47;1.40;;;;;;;11.79;87.40;96729.47;1777400;80;20971;-86
2022/05/26 03:11:10;;;;;;;5.28;1.67;;;;;;;11.81;86.65;96731.39;1771724;80;20959;-86
2022/05/26 03:13:36;;;;;;;2.87;1.32;;;;;;;11.85;86.62;96730.84;1779384;80;20932;-86
2022/05/26 03:16:03;;;;;;;4.50;1.60;;;;;;;11.86;86.04;96740.27;1764620;80;21480;-86
2022/05/26 03:18:30;;;;;;;3.50;1.40;;;;;;;11.89;85.78;96732.12;1767679;80;20964;-85
2022/05/26 03:21:02;;;;;;;5.75;1.60;;;;;;;11.94;86.53;96735.47;1784555;80;21945;-86
2022/05/26 03:23:27;;;;;;;;;;;;;;;11.93;86.68;96730.76;1792159;80;20996;-85
2022/05/26 03:25:58;;;;;;;4.05;1.30;;;;;;;11.92;86.42;96738.27;1789849;80;20092;-86
2022/05/26 03:28:25;;;;;;;5.70;1.52;;;;;;;11.91;86.75;96731.44;1789980;80;21399;-86
2022/05/26 03:30:51;;;;;;;3.22;1.55;;;;;;;11.91;87.10;96741.05;1761870;80;21023;-85
2022/05/26 03:33:16;;;;;;;5.33;1.32;;;;;;;11.88;86.97;96731.00;1777472;80;20961;-86
2022/05/26 03:40:57;;;;;;;3.92;1.77;;;;;;;11.89;87.19;96733.42;1713033;80;21074;-86
2022/05/26 03:43:34;;;;;;;5.85;1.82;;;;;;;11.89;87.25;96739.93;1789130;80;20965;-86
2022/05/26 03:46:00;;;;;;;3.40;1.72;;;;;;;11.88;87.47;96742.22;1788825;80;21048;-86
2022/05/26 03:48:26;;;;;;;2.00;1.80;;;;;;;11.88;87.04;96744.83;1789469;80;20969;-85
2022/05/26 03:50:52;;;;;;;2.37;2.17;;;;;;;11.95;87.02;96746.20;1762974;80;20946;-85
2022/05/26 03:53:18;;;;;;;3.60;2.30;;;;;;;12.00;86.67;96739.94;1788849;80;20969;-85
2022/05/26 03:55:44;;;;;;;3.40;1.82;;;;;;;12.03;86.63;96740.88;1789075;80;21024;-85
2022/05/26 03:58:10;;;;;;;3.33;2.17;;;;;;;12.05;86.83;96744.63;1789400;80;21387;-85
2022/05/26 04:00:35;;;;;;;10.18;1.65;;;;;;;12.05;86.84;96742.03;1789962;80;21059;-86
2022/05/26 04:03:01;;;;;;;6.05;2.17;;;;;;;12.03;87.52;96735.17;1792239;80;21058;-85
2022/05/26 04:05:27;;;;;;;5.72;2.00;;;;;;;12.01;87.67;96742.36;1791974;80;21067;-85
2022/05/26 04:07:52;;;;;;;7.50;2.20;;;;;;;11.99;87.80;96743.05;1792010;80;21059;-85
2022/05/26 04:10:19;;;;;;;6.35;2.35;;;;;;;12.00;87.78;96741.25;1792290;80;21007;-85
2022/05/26 04:12:46;;;;;;;5.22;4.28;;;;;;;12.04;86.91;96747.73;1791739;80;21043;-85
2022/05/26 04:15:13;;;;;;;3.22;2.25;;;;;;;12.13;86.79;96745.81;1792001;80;21310;-85
2022/05/26 04:17:39;;;;;;;3.52;2.10;;;;;;;12.17;87.06;96747.06;1783246;80;20991;-85
2022/05/26 04:20:08;;;;;;;3.55;2.37;;;;;;;12.22;87.12;96742.12;1790262;80;20991;-85
2022/05/26 04:22:33;;;;;;;4.53;1.77;;;;;;;12.24;86.30;96747.47;1790648;80;20905;-85
2022/05/26 04:24:59;;;;;;;1.80;1.70;;;;;;;12.32;86.58;96743.93;1792043;80;20971;-85
2022/05/26 04:27:29;;;;;;;5.85;2.27;;;;;;;12.34;87.34;96748.45;1792233;80;20948;-85
2022/05/26 04:29:55;;;;;;;3.52;2.20;;;;;;;12.36;86.71;96744.36;1792042;80;20986;-85
2022/05/26 04:32:21;;;;;;;2.20;1.65;;;;;;;12.41;86.53;96740.23;1775853;80;21478;-85
2022/05/26 04:34:50;;;;;;;2.40;1.98;;;;;;;12.45;86.67;96744.08;1775198;80;20972;-85
2022/05/26 04:37:23;;;;;;;2.52;2.02;;;;;;;12.48;86.18;96746.31;1779202;80;21070;-84
2022/05/26 04:39:50;;;;;;;3.77;2.40;;;;;;;12.49;86.23;96737.50;1758078;81;20995;-85
2022/05/26 04:42:16;;;;;;;4.92;2.12;;;;;;;12.52;84.83;96750.66;1781852;80;21025;-84
2022/05/26 04:44:43;;;;;;;5.75;2.00;;;;;;;12.60;85.07;96750.05;1789383;80;21465;-84
2022/05/26 04:47:09;;;;;;;2.92;2.02;;;;;;;12.65;85.19;96752.59;1771361;80;20962;-85
2022/05/26 04:49:38;;;;;;;3.83;2.02;;;;;;;12.67;85.00;96754.52;1769956;80;21431;-84
2022/05/26 04:52:06;;;;;;;2.75;2.10;;;;;;;12.70;85.38;96753.67;1759933;80;20920;-85
2022/05/26 04:54:32;;;;;;;2.40;1.75;;;;;;;12.70;85.50;96748.46;1758244;80;21066;-85
2022/05/26 04:56:58;;;;;;;4.12;1.70;;;;;;;12.73;84.62;96745.97;1758290;80;21394;-84
2022/05/26 04:59:25;;;;;;;4.47;1.80;;;;;;;12.77;85.46;96753.73;1758233;80;21042;-84
2022/05/26 05:01:50;;;;;;;2.72;1.65;;;;;;;12.81;84.31;96748.44;1773754;80;21023;-84
2022/05/26 05:04:17;;;;;;;3.98;1.85;;;;;;;12.87;83.51;96754.23;1782722;80;21441;-86
2022/05/26 05:06:43;;;;;;;5.85;2.15;;;;;;;12.91;84.19;96749.75;1778577;80;21398;-86
2022/05/26 05:09:10;;;;;;;3.50;1.65;;;;;;;12.96;83.47;96745.27;1769408;80;21762;-86
2022/05/26 05:11:36;;;;;;;3.77;1.80;;;;;;;12.99;83.09;96747.50;1756944;80;20963;-86
2022/05/26 05:14:02;;;;;;;2.67;1.80;;;;;;;13.02;83.41;96748.95;1757488;80;20991;-86
2022/05/26 05:16:32;;;;;;;1.32;1.20;;;;;;;13.05;83.00;96757.70;1757039;81;21003;-86
2022/05/26 05:18:58;;;;;;;5.42;3.65;;;;;;;13.11;82.34;96752.53;1763907;80;21016;-85
2022/05/26 05:21:34;;;;;;;3.58;2.30;;;;;;;13.19;82.69;96760.27;1788783;80;21352;-86
2022/05/26 05:24:08;;;;;;;2.77;1.60;;;;;;;13.25;83.02;96757.89;1787861;80;20989;-86
2022/05/26 05:26:35;;;;;;;3.08;2.30;;;;;;;13.29;82.08;96765.64;1786641;80;21069;-86
2022/05/26 05:29:04;;;;;;;3.85;1.60;;;;;;;13.33;81.65;96762.95;1778940;80;21027;-86
2022/05/26 05:31:35;;;;;;;3.70;1.80;;;;;;;13.37;81.23;96756.38;1784791;80;21070;-85
2022/05/26 05:34:05;;;;;;;2.15;1.95;;;;;;;13.39;80.87;96753.89;1784005;80;21389;-86
2022/05/26 05:36:33;;;;;;;3.72;1.70;;;;;;;13.52;80.85;96762.31;1788338;80;21012;-86
2022/05/26 05:38:59;;;;;;;4.05;2.05;;;;;;;13.59;81.00;96761.84;1762901;81;21051;-86
2022/05/26 05:41:26;;;;;;;3.17;1.80;;;;;;;13.66;80.70;96761.37;1796770;80;21065;-86
2022/05/26 05:43:52;;;;;;;3.12;1.67;;;;;;;13.71;79.66;96756.41;1793117;80;21290;-86
2022/05/26 05:46:21;;;;;;;4.22;2.35;;;;;;;13.75;79.35;96752.91;1795715;80;20999;-84
2022/05/26 05:48:47;;;;;;;2.17;1.85;;;;;;;13.78;79.70;96763.77;1792089;80;20915;-84
2022/05/26 05:51:13;;;;;;;3.50;1.70;;;;;;;13.84;79.39;96758.80;1787564;80;20999;-84
2022/05/26 05:53:39;;;;;;;2.27;1.80;;;;;;;13.90;79.67;96769.77;1775744;80;20999;-83
2022/05/26 05:56:05;;;;;;;3.95;2.20;;;;;;;13.98;79.77;96775.63;1753115;80;21051;-85
2022/05/26 05:58:31;;;;;;;3.20;2.17;;;;;;;14.07;79.31;96774.98;1737289;81;21063;-84
2022/05/26 06:00:57;;;;;;;2.80;2.37;;;;;;;14.11;78.87;96771.78;1737186;83;21070;-84
2022/05/26 06:03:23;;;;;;;1.70;1.50;;;;;;;14.17;79.02;96777.25;1737425;83;21039;-84
2022/05/26 06:05:49;;;;;;;5.05;2.80;;;;;;;14.21;78.59;96777.97;1738555;81;21089;-84
2022/05/26 06:08:15;;;;;;;21.70;10.28;;;;;;;14.28;78.62;96779.29;1736957;80;21314;-85
2022/05/26 06:10:41;;;;;;;6.22;3.77;;;;;;;14.32;78.37;96782.64;1760590;81;20958;-84
2022/05/26 06:13:06;;;;;;;5.87;4.50;;;;;;;14.36;76.91;96785.67;1748678;81;20935;-84
2022/05/26 06:15:33;;;;;;;4.60;2.80;;;;;;;14.41;77.66;96786.69;1768342;81;21005;-84
2022/05/26 06:17:59;;;;;;;4.15;2.90;;;;;;;14.48;77.85;96784.61;1768492;81;21056;-83
2022/05/26 06:20:26;;;;;;;5.05;2.72;;;;;;;14.52;77.28;96786.66;1768484;81;21394;-84
2022/05/26 06:22:52;;;;;;;4.90;3.62;;;;;;;14.57;77.68;96793.41;1768616;81;20966;-84
2022/05/26 06:25:19;;;;;;;4.28;2.30;;;;;;;14.62;76.71;96783.66;1768739;81;21016;-84
2022/05/26 06:30:30;;;;;;;2.72;2.05;;;;;;;14.75;76.70;96785.51;1794353;80;21038;-83
2022/05/26 06:38:34;;;;;;;2.58;2.00;;;;;;;15.01;75.32;96797.34;1795646;80;20975;-86
2022/05/26 06:42:05;;;;;;;4.78;2.92;;;;;;;15.07;74.96;96799.66;1793460;80;21493;-83
2022/05/26 06:43:27;;;;;;;3.98;2.50;;;;;;;15.13;74.73;96799.69;1786186;80;20984;-83
2022/05/26 06:45:53;;;;;;;2.45;1.67;;;;;;;15.17;74.39;96793.03;1780638;80;20943;-84
2022/05/26 06:48:19;;;;;;;4.75;1.65;;;;;;;15.28;74.34;96796.34;1789989;80;21375;-83
2022/05/26 06:50:44;;;;;;;3.55;2.92;;;;;;;15.37;74.27;96790.42;1787024;80;20933;-83
2022/05/26 06:53:10;;;;;;;4.75;2.00;;;;;;;15.48;74.54;96789.02;1789186;80;20954;-83
2022/05/26 06:55:36;;;;;;;2.27;1.52;;;;;;;15.55;74.03;96793.23;1757288;80;20962;-83
2022/05/26 06:58:02;;;;;;;1.98;1.77;;;;;;;15.64;73.62;96790.45;1768125;80;20983;-83
2022/05/26 07:00:27;;;;;;;2.33;1.70;;;;;;;15.66;73.10;96798.91;1784394;80;21372;-84
2022/05/26 07:02:53;;;;;;;3.33;1.72;;;;;;;15.71;71.21;96805.13;1788978;80;20961;-83
2022/05/26 07:05:19;;;;;;;2.52;1.60;;;;;;;15.76;71.62;96797.46;1792196;80;20983;-83
2022/05/26 07:07:45;;;;;;;3.20;1.60;;;;;;;15.84;71.58;96796.45;1789779;80;20982;-83
2022/05/26 07:10:13;;;;;;;2.27;1.20;;;;;;;15.92;71.15;96797.53;1794640;80;21038;-83
2022/05/26 07:12:40;;;;;;;3.12;1.67;;;;;;;16.02;70.67;96803.67;1794539;80;21038;-83
2022/05/26 07:15:08;;;;;;;3.37;1.60;;;;;;;16.08;70.48;96807.58;1779194;80;21054;-83
2022/05/26 07:17:34;;;;;;;4.47;1.67;;;;;;;16.20;69.79;96814.31;1792745;80;20982;-83
2022/05/26 07:20:00;;;;;;;2.55;1.20;;;;;;;16.25;68.75;96803.20;1789907;80;20944;-82
2022/05/26 07:22:25;;;;;;;3.25;1.42;;;;;;;16.28;69.65;96809.36;1771177;80;20981;-83
2022/05/26 07:24:51;;;;;;;1.87;1.20;;;;;;;16.31;68.41;96815.50;1775088;80;21464;-81
2022/05/26 07:27:18;;;;;;;2.98;1.20;;;;;;;16.35;68.88;96825.86;1786651;80;21048;-81
2022/05/26 07:29:44;;;;;;;2.33;1.20;;;;;;;16.37;68.35;96819.91;1768736;80;21000;-81
2022/05/26 07:32:09;;;;;;;2.72;1.35;;;;;;;16.38;67.61;96821.52;1768391;80;21402;-80
2022/05/26 07:34:35;;;;;;;1.80;1.47;;;;;;;16.40;67.30;96822.11;1784564;80;21002;-81
2022/05/26 07:42:33;;;;;;;1.92;1.25;;;;;;;16.62;66.59;96818.20;1776026;80;21061;-80
2022/05/26 07:44:59;;;;;;;2.87;1.40;;;;;;;16.68;67.42;96819.20;1788670;80;21052;-81
2022/05/26 07:47:26;;;;;;;4.60;1.47;;;;;;;16.80;66.51;96825.41;1789569;80;21025;-81
2022/05/26 07:49:52;;;;;;;3.27;1.27;;;;;;;16.86;66.11;96824.56;1788622;80;21022;-81
2022/05/26 07:52:18;;;;;;;11.75;6.87;;;;;;;16.93;66.08;96823.23;1780934;80;21028;-81
2022/05/26 07:54:43;;;;;;;14.13;10.13;;;;;;;17.04;66.98;96827.28;1766736;80;21428;-81
2022/05/26 07:57:15;;;;;;;9.38;5.10;;;;;;;17.17;66.60;96826.40;1776870;80;21054;-81
2022/05/26 07:59:40;;;;;;;9.08;6.87;;;;;;;17.33;65.13;96827.70;1779820;80;20999;-81
2022/05/26 08:02:07;;;;;;;6.50;4.95;;;;;;;17.45;64.75;96839.14;1789264;80;20937;-81
2022/05/26 08:04:32;;;;;;;4.42;2.45;;;;;;;17.56;65.48;96831.05;1788809;80;20912;-81
2022/05/26 08:06:58;;;;;;;4.53;1.92;;;;;;;17.66;64.75;96826.13;1789134;80;21025;-81
2022/05/26 08:09:24;;;;;;;6.83;2.22;;;;;;;17.74;64.07;96829.05;1789330;80;20932;-81
2022/05/26 08:11:50;;;;;;;2.65;1.30;;;;;;;17.86;64.83;96819.41;1789243;80;20945;-81
2022/05/26 08:14:16;;;;;;;2.60;1.98;;;;;;;18.03;64.48;96822.28;1784830;80;20964;-81
2022/05/26 08:16:42;;;;;;;3.77;1.67;;;;;;;18.23;64.70;96821.58;1788279;80;21270;-81
2022/05/26 08:19:07;;;;;;;2.60;1.27;;;;;;;18.40;63.91;96834.95;1775533;80;21038;-81
2022/05/26 08:21:35;;;;;;;3.27;1.40;;;;;;;18.54;62.79;96827.97;1782797;80;20992;-81
2022/05/26 08:24:01;;;;;;;4.97;1.45;;;;;;;18.66;61.67;96832.53;1763115;80;20936;-81
2022/05/26 08:26:28;;;;;;;5.95;1.30;;;;;;;18.79;61.62;96835.00;1785360;80;21011;-81
2022/05/26 08:28:55;;;;;;;2.08;1.20;;;;;;;18.97;61.02;96834.97;1784892;80;20975;-81
2022/05/26 08:31:21;;;;;;;2.72;1.15;;;;;;;18.99;60.48;96828.16;1788110;80;20979;-81
2022/05/26 08:33:47;;;;;;;2.55;0.98;;;;;;;18.96;60.30;96828.61;1787142;80;21854;-81
2022/05/26 08:36:17;;;;;;;1.27;1.02;;;;;;;19.06;59.91;96832.83;1775500;79;20983;-82
2022/05/26 08:38:46;;;;;;;2.58;1.05;;;;;;;18.97;59.55;96832.33;1784238;80;21312;-82
2022/05/26 08:41:30;;;;;;;4.00;1.67;;;;;;;18.84;60.04;96835.13;1763492;80;21342;-82
2022/05/26 08:44:03;;;;;;;1.57;1.05;;;;;;;18.96;60.33;96827.29;1788389;80;20988;-82
2022/05/26 08:46:40;;;;;;;3.65;1.12;;;;;;;19.00;59.59;96828.44;1779614;79;22044;-81
2022/05/26 08:49:14;;;;;;;3.12;0.90;;;;;;;18.99;58.14;96820.25;1749747;80;21094;-82
2022/05/26 08:51:50;;;;;;;3.85;0.90;;;;;;;19.07;59.41;96827.85;1745372;82;20994;-82
2022/05/26 08:54:27;;;;;;;2.70;1.00;;;;;;;19.03;55.31;96826.67;1778677;79;20988;-81
2022/05/26 08:56:56;;;;;;;1.55;0.90;;;;;;;18.85;56.32;96826.20;1778771;80;21065;-82
2022/05/26 08:59:26;;;;;;;1.05;0.62;;;;;;;18.83;56.81;96829.58;1771821;80;21451;-83
2022/05/26 09:01:51;;;;;;;1.45;0.50;;;;;;;18.74;52.34;96829.61;1788501;80;21005;-81
2022/05/26 09:04:17;;;;;;;0.70;0.40;;;;;;;18.89;55.27;96837.92;1787230;79;20978;-82
2022/05/26 09:15:05;;;;;;;2.62;0.88;;;;;;;19.51;51.96;96854.23;1785514;80;21429;-82
2022/05/26 09:17:31;;;;;;;2.67;0.82;;;;;;;19.54;51.94;96845.09;1731709;80;20983;-82
2022/05/26 09:19:58;;;;;;;11.70;5.42;;;;;;;19.53;52.35;96838.22;1789261;80;21102;-82
2022/05/26 09:22:37;;;;;;;6.35;2.40;;;;;;;19.63;52.21;96825.30;1780200;80;21378;-82
2022/05/26 09:25:03;;;;;;;3.85;1.00;;;;;;;19.85;53.22;96834.76;1787774;80;21373;-82
2022/05/26 09:27:36;;;;;;;4.75;1.10;;;;;;;19.96;52.45;96827.38;1787506;80;20934;-81
2022/05/26 09:30:26;;;;;;;4.78;2.10;;;;;;;20.08;51.46;96824.22;1767684;80;20985;-83
2022/05/26 09:32:52;;;;;;;5.15;2.70;;;;;;;19.87;50.81;96841.44;1782856;80;21007;-82
2022/05/26 09:35:27;;;;;;;3.17;1.65;;;;;;;19.90;49.75;96849.40;1784061;80;20920;-82
2022/05/26 09:37:56;;;;;;;2.50;1.00;;;;;;;20.05;49.67;96835.23;1756155;82;21445;-82
2022/05/26 09:40:33;;;;;;;2.05;0.62;;;;;;;20.16;49.08;96842.84;1774901;80;20933;-82
2022/05/26 09:43:04;;;;;;;3.72;0.70;;;;;;;20.28;48.91;96829.92;1788244;80;21025;-82
2022/05/26 09:45:42;;;;;;;3.00;0.78;;;;;;;20.32;48.98;96846.09;1786904;80;21328;-82
2022/05/26 09:48:24;;;;;;;1.55;1.00;;;;;;;20.35;49.47;96827.98;1788909;80;20977;-82
2022/05/26 09:51:14;;;;;;;3.47;0.68;;;;;;;20.33;48.68;96828.70;1791939;80;20969;-82
2022/05/26 09:53:43;;;;;;;1.72;0.50;;;;;;;20.57;50.18;96824.73;1783786;80;20955;-81
2022/05/26 09:56:32;;;;;;;1.87;0.90;;;;;;;20.67;48.76;96827.07;1789042;80;21026;-82
2022/05/26 09:58:57;;;;;;;1.47;0.85;;;;;;;20.83;50.72;96825.52;1790402;80;21050;-82
2022/05/26 10:01:29;;;;;;;2.58;0.98;;;;;;;21.22;49.01;96834.94;1793749;80;21089;-82
2022/05/26 10:04:15;;;;;;;1.65;0.80;;;;;;;21.47;49.40;96834.05;1788051;80;21483;-82
2022/05/26 10:06:46;;;;;;;6.00;2.72;;;;;;;21.76;48.66;96824.20;1740934;80;21478;-82
2022/05/26 10:09:30;;;;;;;7.87;4.22;;;;;;;21.90;49.24;96829.17;1760944;80;21058;-82
2022/05/26 10:12:21;;;;;;;5.58;2.50;;;;;;;21.84;48.49;96830.42;1758350;80;21326;-82
2022/05/26 10:15:15;;;;;;;6.00;3.22;;;;;;;21.54;45.43;96829.95;1758574;82;20992;-82
2022/05/26 10:18:16;;;;;;;4.92;1.90;;;;;;;21.06;45.24;96822.48;1761859;80;21144;-81
2022/05/26 10:21:08;;;;;;;2.20;1.37;;;;;;;20.80;46.66;96831.25;1758151;82;21003;-82
2022/05/26 10:24:08;;;;;;;3.40;1.57;;;;;;;20.66;47.05;96831.23;1762417;80;20963;-82
2022/05/26 10:26:46;;;;;;;3.58;0.80;;;;;;;20.91;48.40;96837.02;1762322;80;20959;-82
2022/05/26 10:29:45;;;;;;;1.40;0.90;;;;;;;20.98;45.14;96842.95;1758368;81;20972;-82
2022/05/26 10:32:41;;;;;;;3.08;0.78;;;;;;;20.91;47.20;96846.78;1758352;81;21334;-81
2022/05/26 10:35:28;;;;;;;2.02;0.80;;;;;;;20.95;46.61;96834.19;1771634;80;21029;-82
2022/05/26 10:38:24;;;;;;;3.33;1.12;;;;;;;21.15;47.18;96837.73;1780205;80;21428;-82
2022/05/26 10:41:13;;;;;;;21.15;11.80;;;;;;;21.14;46.23;96840.59;1756419;80;20991;-82
2022/05/26 10:43:45;;;;;;;11.08;3.58;;;;;;;20.89;46.72;96854.14;1746865;80;21315;-82
2022/05/26 10:46:12;;;;;;;5.72;3.05;;;;;;;20.70;45.32;96854.84;1746102;82;21018;-82
2022/05/26 10:48:58;;;;;;;6.00;3.65;;;;;;;20.61;45.96;96844.34;1752898;80;22015;-82
2022/05/26 10:51:35;;;;;;;4.00;2.25;;;;;;;20.59;47.19;96853.02;1759298;80;20989;-81
2022/05/26 10:54:17;;;;;;;3.00;0.80;;;;;;;20.62;47.05;96845.43;1792453;80;20967;-81
2022/05/26 10:57:07;;;;;;;2.17;1.15;;;;;;;20.86;47.21;96853.30;1779931;80;20946;-82
2022/05/26 10:59:56;;;;;;;2.20;0.85;;;;;;;21.13;47.10;96846.91;1732069;80;20981;-81
2022/05/26 11:02:43;;;;;;;2.90;0.70;;;;;;;21.29;46.93;96850.14;1776089;80;21427;-82
2022/05/26 11:05:23;;;;;;;2.30;1.10;;;;;;;21.35;46.79;96845.23;1776485;81;21029;-82
2022/05/26 11:08:14;;;;;;;2.02;0.95;;;;;;;21.30;45.13;96863.63;1749361;80;21054;-82
2022/05/26 11:11:09;;;;;;;3.62;1.10;;;;;;;21.05;45.60;96854.71;1760758;80;20992;-82
2022/05/26 11:13:53;;;;;;;3.58;1.60;;;;;;;20.93;47.30;96857.39;1776463;80;21101;-82
2022/05/26 11:19:41;;;;;;;3.12;1.98;;;;;;;21.30;47.49;96845.13;1776126;80;21021;-82
2022/05/26 11:22:06;;;;;;;5.08;3.72;;;;;;;21.38;47.23;96846.08;1780144;80;20991;-82
2022/05/26 11:24:33;;;;;;;2.50;1.20;;;;;;;21.31;48.09;96849.38;1742757;80;21468;-82
2022/05/26 11:27:15;;;;;;;2.58;1.37;;;;;;;21.35;48.02;96850.53;1792464;80;20975;-82
2022/05/26 11:29:56;;;;;;;3.50;1.10;;;;;;;21.52;47.53;96854.51;1779210;80;20918;-81
2022/05/26 11:38:31;;;;;;;1.40;0.78;;;;;;;21.70;47.56;96842.38;1716174;84;21046;-82
2022/05/26 11:41:04;;;;;;;2.80;0.95;;;;;;;21.62;47.07;96834.83;1716373;84;21425;-83
2022/05/26 11:43:54;;;;;;;21.90;9.15;;;;;;;21.57;47.59;96831.59;1759725;81;21065;-82
2022/05/26 11:46:45;;;;;;;10.32;4.15;;;;;;;21.56;47.53;96849.81;1734160;83;20967;-83
2022/05/26 11:49:32;;;;;;;3.80;1.47;;;;;;;21.51;47.72;96840.48;1719866;82;20937;-82
2022/05/26 11:51:57;;;;;;;3.80;2.33;;;;;;;21.45;46.80;96840.63;1732579;82;21416;-82
2022/05/26 11:55:02;;;;;;;7.70;5.10;;;;;;;21.21;46.96;96846.55;1743442;81;20981;-82
2022/05/26 11:57:43;;;;;;;3.15;1.67;;;;;;;21.14;48.12;96840.59;1736653;82;20979;-81
2022/05/26 12:00:37;;;;;;;2.70;1.70;;;;;;;21.38;47.60;96833.38;1743672;82;21017;-82
2022/05/26 12:03:26;;;;;;;4.15;2.27;;;;;;;21.57;49.43;96838.20;1744815;81;21039;-83
2022/05/26 12:06:13;;;;;;;2.60;1.60;;;;;;;21.83;47.70;96851.83;1741487;81;21043;-82
2022/05/26 12:09:05;;;;;;;2.10;1.12;;;;;;;21.99;47.23;96842.28;1745623;81;21038;-82
2022/05/26 12:12:00;;;;;;;4.28;1.10;;;;;;;21.65;46.52;96846.79;1745424;81;20963;-82
2022/05/26 12:14:51;;;;;;;3.17;1.02;;;;;;;21.33;47.90;96841.23;1743020;81;21002;-82
2022/05/26 12:17:32;;;;;;;3.08;1.40;;;;;;;21.09;47.84;96839.98;1744986;81;21026;-82
2022/05/26 12:20:16;;;;;;;4.30;1.10;;;;;;;21.02;48.71;96828.77;1745798;81;20959;-82
2022/05/26 12:22:53;;;;;;;1.77;0.85;;;;;;;20.88;48.40;96830.89;1741824;81;21398;-81
2022/05/26 12:25:27;;;;;;;4.12;1.40;;;;;;;20.71;47.94;96830.56;1745570;82;21390;-82
2022/05/26 12:27:57;;;;;;;3.72;1.00;;;;;;;20.66;49.25;96824.64;1745830;81;21365;-82
2022/05/26 12:30:48;;;;;;;2.52;1.27;;;;;;;20.52;48.31;96819.37;1745792;81;21377;-82
2022/05/26 12:33:57;;;;;;;1.82;0.78;;;;;;;20.49;49.76;96812.69;1713047;82;21326;-81
2022/05/26 12:36:50;;;;;;;1.30;1.07;;;;;;;20.60;48.78;96825.58;1753012;80;21069;-82
2022/05/26 12:39:43;;;;;;;1.98;0.70;;;;;;;20.57;48.87;96816.81;1784535;80;21114;-82
2022/05/26 12:42:21;;;;;;;1.87;0.83;;;;;;;20.39;48.98;96814.59;1788093;80;21011;-83